createdAt,value
2022-11-17T00:00:31.054Z,3.63
2022-11-17T00:03:01.098Z,3.70
2022-11-17T00:05:29.607Z,3.67
2022-11-17T00:07:58.091Z,3.77
2022-11-17T00:10:26.690Z,3.47
2022-11-17T00:13:12.736Z,3.30
2022-11-17T00:15:44.520Z,2.83
2022-11-17T00:18:31.979Z,3.00
2022-11-17T00:21:18.119Z,2.70
2022-11-17T00:23:50.067Z,2.50
2022-11-17T00:26:19.180Z,2.70
2022-11-17T00:28:47.563Z,2.50
2022-11-17T00:31:48.449Z,2.20
2022-11-17T00:34:18.544Z,2.20
2022-11-17T00:36:47.203Z,2.60
2022-11-17T00:39:15.847Z,2.30
2022-11-17T00:41:44.355Z,2.00
2022-11-17T00:44:12.994Z,2.40
2022-11-17T00:46:41.710Z,2.20
2022-11-17T00:49:10.182Z,2.20
2022-11-17T00:51:40.042Z,2.20
2022-11-17T00:54:08.805Z,2.17
2022-11-17T00:56:37.126Z,2.00
2022-11-17T00:59:05.874Z,2.20
2022-11-17T01:01:34.336Z,2.27
2022-11-17T01:04:04.217Z,2.37
2022-11-17T01:06:33.627Z,2.17
2022-11-17T01:09:03.452Z,2.20
2022-11-17T01:11:31.797Z,2.00
2022-11-17T01:14:00.574Z,2.00
2022-11-17T01:16:28.933Z,1.80
2022-11-17T01:18:57.245Z,2.10
2022-11-17T01:21:25.994Z,1.87
2022-11-17T01:23:54.876Z,2.00
2022-11-17T01:26:25.053Z,2.00
2022-11-17T01:28:53.758Z,1.63
2022-11-17T01:31:22.558Z,1.97
2022-11-17T01:33:51.127Z,1.83
2022-11-17T01:36:19.784Z,2.20
2022-11-17T01:38:48.606Z,1.73
2022-11-17T01:41:18.230Z,1.87
2022-11-17T01:43:48.574Z,2.10
2022-11-17T01:46:20.012Z,2.07
2022-11-17T01:48:48.428Z,2.00
2022-11-17T01:51:16.810Z,2.20
2022-11-17T01:53:48.294Z,2.53
2022-11-17T01:56:17.387Z,2.50
2022-11-17T01:58:45.968Z,2.47
2022-11-17T02:01:15.818Z,2.10
2022-11-17T02:03:44.229Z,2.43
2022-11-17T02:06:13.291Z,2.30
2022-11-17T02:08:43.457Z,2.50
2022-11-17T02:11:13.722Z,2.20
2022-11-17T02:13:42.049Z,2.27
2022-11-17T02:16:13.240Z,2.33
2022-11-17T02:18:43.062Z,2.23
2022-11-17T02:21:29.345Z,2.37
2022-11-17T02:24:12.783Z,2.10
2022-11-17T02:27:00.742Z,1.80
2022-11-17T02:29:31.692Z,2.10
2022-11-17T02:32:01.732Z,2.43
2022-11-17T02:34:33.328Z,2.30
2022-11-17T02:37:02.690Z,2.37
2022-11-17T02:39:32.450Z,2.20
2022-11-17T02:42:03.289Z,2.43
2022-11-17T02:44:33.218Z,1.97
2022-11-17T02:47:03.606Z,2.00
2022-11-17T02:49:33.465Z,2.57
2022-11-17T02:52:01.971Z,2.00
2022-11-17T02:54:31.049Z,2.90
2022-11-17T02:56:59.342Z,2.13
2022-11-17T02:59:28.728Z,2.00
2022-11-17T03:02:18.305Z,2.30
2022-11-17T03:04:47.895Z,2.10
2022-11-17T03:07:20.276Z,2.10
2022-11-17T03:09:49.583Z,2.17
2022-11-17T03:12:18.731Z,2.03
2022-11-17T03:14:49.425Z,2.07
2022-11-17T03:17:20.069Z,1.73
2022-11-17T03:19:48.918Z,2.00
2022-11-17T03:22:18.670Z,2.10
2022-11-17T03:24:48.905Z,2.40
2022-11-17T03:27:18.857Z,1.50
2022-11-17T03:29:49.336Z,2.00
2022-11-17T03:32:19.214Z,2.23
2022-11-17T03:34:48.042Z,1.67
2022-11-17T03:37:16.518Z,1.77
2022-11-17T03:39:45.057Z,1.80
2022-11-17T03:42:15.661Z,1.40
2022-11-17T03:44:44.327Z,1.40
2022-11-17T03:47:12.966Z,1.53
2022-11-17T03:49:44.133Z,1.80
2022-11-17T03:52:12.563Z,1.87
2022-11-17T03:54:40.863Z,1.97
2022-11-17T03:57:10.104Z,1.70
2022-11-17T03:59:42.133Z,1.90
2022-11-17T04:02:10.545Z,1.93
2022-11-17T04:04:52.793Z,1.93
2022-11-17T04:07:22.891Z,1.60
2022-11-17T04:09:51.226Z,2.50
2022-11-17T04:12:37.410Z,1.83
2022-11-17T04:15:23.409Z,2.00
2022-11-17T04:17:52.105Z,1.80
2022-11-17T04:20:20.413Z,1.70
2022-11-17T04:23:07.023Z,2.03
2022-11-17T04:25:53.316Z,1.53
2022-11-17T04:28:40.151Z,1.47
2022-11-17T04:31:09.283Z,2.10
2022-11-17T04:33:38.399Z,1.77
2022-11-17T04:36:07.304Z,2.43
2022-11-17T04:38:37.098Z,1.60
2022-11-17T04:41:23.847Z,1.30
2022-11-17T04:43:52.340Z,1.77
2022-11-17T04:46:20.910Z,1.50
2022-11-17T04:48:49.369Z,1.63
2022-11-17T04:51:18.124Z,1.43
2022-11-17T04:53:48.063Z,1.47
2022-11-17T04:56:16.651Z,1.77
2022-11-17T04:58:45.176Z,1.57
2022-11-17T05:01:13.677Z,1.87
2022-11-17T05:03:42.930Z,1.90
2022-11-17T05:06:11.472Z,2.00
2022-11-17T05:08:39.878Z,2.07
2022-11-17T05:11:26.373Z,2.30
2022-11-17T05:13:54.787Z,2.20
2022-11-17T05:16:40.599Z,2.80
2022-11-17T05:19:09.766Z,2.20
2022-11-17T05:21:38.362Z,2.60
2022-11-17T05:24:05.835Z,2.47
2022-11-17T05:26:35.836Z,2.70
2022-11-17T05:29:04.903Z,2.50
2022-11-17T05:31:33.435Z,2.60
2022-11-17T05:34:01.911Z,2.33
2022-11-17T05:36:30.461Z,2.40
2022-11-17T05:38:58.846Z,2.30
2022-11-17T05:41:27.755Z,2.57
2022-11-17T05:43:57.609Z,2.73
2022-11-17T05:46:26.038Z,2.23
2022-11-17T05:48:54.538Z,2.10
2022-11-17T05:51:23.412Z,2.60
2022-11-17T05:53:51.939Z,2.30
2022-11-17T05:56:34.455Z,2.50
2022-11-17T05:59:07.299Z,2.33
2022-11-17T06:01:35.795Z,2.53
2022-11-17T06:04:04.419Z,2.00
2022-11-17T06:06:32.963Z,2.20
2022-11-17T06:09:01.442Z,1.80
2022-11-17T06:11:29.797Z,1.87
2022-11-17T06:13:58.615Z,2.13
2022-11-17T06:16:29.004Z,2.10
2022-11-17T06:18:58.846Z,2.20
2022-11-17T06:21:37.915Z,2.40
2022-11-17T06:24:15.604Z,2.17
2022-11-17T06:26:44.001Z,2.20
2022-11-17T06:29:12.474Z,2.37
2022-11-17T06:31:42.568Z,2.37
2022-11-17T06:34:10.950Z,2.20
2022-11-17T06:36:39.592Z,2.60
2022-11-17T06:39:08.300Z,2.00
2022-11-17T06:41:39.394Z,2.50
2022-11-17T06:44:07.825Z,2.10
2022-11-17T06:46:43.722Z,1.80
2022-11-17T06:49:18.536Z,1.60
2022-11-17T06:51:46.937Z,2.07
2022-11-17T06:54:15.838Z,2.10
2022-11-17T06:56:45.238Z,2.37
2022-11-17T06:59:15.559Z,2.10
2022-11-17T07:01:44.053Z,2.60
2022-11-17T07:04:12.529Z,2.70
2022-11-17T07:06:42.651Z,2.90
2022-11-17T07:09:11.215Z,3.13
2022-11-17T07:11:39.677Z,2.33
2022-11-17T07:14:08.158Z,2.13
2022-11-17T07:16:36.552Z,2.03
2022-11-17T07:19:08.477Z,2.37
2022-11-17T07:21:36.913Z,2.30
2022-11-17T07:24:07.169Z,2.53
2022-11-17T07:26:35.764Z,2.40
2022-11-17T07:29:04.159Z,2.37
2022-11-17T07:31:32.938Z,2.60
2022-11-17T07:34:01.337Z,2.70
2022-11-17T07:36:29.670Z,2.60
2022-11-17T07:38:58.172Z,2.40
2022-11-17T07:41:28.223Z,2.73
2022-11-17T07:43:56.783Z,2.50
2022-11-17T07:46:25.984Z,2.10
2022-11-17T07:48:55.492Z,2.20
2022-11-17T07:51:23.923Z,2.37
2022-11-17T07:53:52.320Z,2.30
2022-11-17T07:56:20.727Z,2.10
2022-11-17T07:58:50.496Z,2.20
2022-11-17T08:01:21.892Z,2.20
2022-11-17T08:03:50.681Z,2.07
2022-11-17T08:06:19.327Z,2.10
2022-11-17T08:08:49.679Z,2.30
2022-11-17T08:11:19.348Z,1.97
2022-11-17T08:13:47.835Z,1.80
2022-11-17T08:16:17.623Z,2.30
2022-11-17T08:18:51.686Z,2.60
2022-11-17T08:21:21.068Z,1.93
2022-11-17T08:23:51.980Z,2.33
2022-11-17T08:26:20.560Z,2.07
2022-11-17T08:28:52.257Z,2.40
2022-11-17T08:31:26.685Z,1.90
2022-11-17T08:33:55.626Z,2.67
2022-11-17T08:36:24.024Z,2.30
2022-11-17T08:38:52.728Z,2.23
2022-11-17T08:41:21.963Z,2.17
2022-11-17T08:43:50.388Z,1.90
2022-11-17T08:46:18.857Z,2.07
2022-11-17T08:48:52.217Z,2.17
2022-11-17T08:51:24.004Z,2.13
2022-11-17T08:53:52.648Z,2.00
2022-11-17T08:56:21.211Z,1.97
2022-11-17T08:58:49.769Z,1.60
2022-11-17T09:01:18.318Z,1.80
2022-11-17T09:03:48.802Z,1.60
2022-11-17T09:06:17.539Z,1.50
2022-11-17T09:08:47.424Z,1.60
2022-11-17T09:11:24.998Z,1.83
2022-11-17T09:13:53.750Z,1.87
2022-11-17T09:16:24.108Z,2.00
2022-11-17T09:18:58.399Z,2.17
2022-11-17T09:21:27.334Z,1.83
2022-11-17T09:23:55.870Z,1.90
2022-11-17T09:26:24.277Z,1.83
2022-11-17T09:28:52.773Z,1.80
2022-11-17T09:31:21.970Z,2.20
2022-11-17T09:33:50.636Z,2.27
2022-11-17T09:36:20.753Z,2.23
2022-11-17T09:38:49.104Z,2.33
2022-11-17T09:41:22.672Z,2.00
2022-11-17T09:43:52.514Z,2.37
2022-11-17T09:46:22.072Z,2.37
2022-11-17T09:48:50.461Z,2.63
2022-11-17T09:51:20.709Z,2.60
2022-11-17T09:53:50.688Z,2.50
2022-11-17T09:56:19.117Z,2.37
2022-11-17T09:58:48.026Z,2.60
2022-11-17T10:01:17.150Z,2.50
2022-11-17T10:03:47.357Z,2.63
2022-11-17T10:06:17.156Z,2.40
2022-11-17T10:08:48.464Z,2.30
2022-11-17T10:11:33.019Z,2.70
2022-11-17T10:14:04.141Z,2.23
2022-11-17T10:16:32.722Z,2.10
2022-11-17T10:19:01.168Z,2.07
2022-11-17T10:21:31.417Z,2.10
2022-11-17T10:24:01.206Z,2.53
2022-11-17T10:26:29.841Z,1.97
2022-11-17T10:29:09.041Z,2.40
2022-11-17T10:31:44.444Z,2.40
2022-11-17T10:34:13.183Z,3.60
2022-11-17T10:36:46.720Z,2.40
2022-11-17T10:39:29.966Z,2.40
2022-11-17T10:41:59.779Z,2.50
2022-11-17T10:44:28.286Z,2.33
2022-11-17T10:47:01.928Z,2.50
2022-11-17T10:49:31.646Z,2.33
2022-11-17T10:52:06.716Z,2.20
2022-11-17T10:54:35.074Z,2.13
2022-11-17T10:57:06.740Z,2.03
2022-11-17T10:59:35.289Z,1.80
2022-11-17T11:02:21.717Z,2.10
2022-11-17T11:04:50.180Z,1.73
2022-11-17T11:07:21.086Z,1.57
2022-11-17T11:09:50.463Z,1.80
2022-11-17T11:12:21.067Z,1.93
2022-11-17T11:14:50.418Z,1.80
2022-11-17T11:17:20.278Z,1.63
2022-11-17T11:19:52.058Z,1.57
2022-11-17T11:22:30.497Z,1.80
2022-11-17T11:25:01.123Z,1.50
2022-11-17T11:27:36.305Z,1.80
2022-11-17T11:30:05.548Z,1.93
2022-11-17T11:32:37.068Z,2.50
2022-11-17T11:35:16.043Z,1.90
2022-11-17T11:37:46.464Z,1.93
2022-11-17T11:40:16.119Z,2.23
2022-11-17T11:42:51.681Z,1.60
2022-11-17T11:45:25.441Z,1.87
2022-11-17T11:47:58.980Z,1.97
2022-11-17T11:50:27.758Z,2.17
2022-11-17T11:52:57.188Z,2.60
2022-11-17T11:55:26.653Z,2.43
2022-11-17T11:57:57.475Z,2.20
2022-11-17T12:00:26.017Z,2.33
2022-11-17T12:02:55.515Z,2.10
2022-11-17T12:05:26.292Z,2.57
2022-11-17T12:07:55.733Z,2.37
2022-11-17T12:10:25.801Z,2.17
2022-11-17T12:12:54.111Z,2.20
2022-11-17T12:15:36.566Z,2.00
2022-11-17T12:18:06.421Z,2.77
2022-11-17T12:20:58.923Z,2.63
2022-11-17T12:23:44.951Z,2.47
2022-11-17T12:26:22.081Z,2.30
2022-11-17T12:28:50.412Z,2.50
2022-11-17T12:31:33.682Z,2.00
2022-11-17T12:34:22.601Z,2.37
2022-11-17T12:37:18.727Z,2.17
2022-11-17T12:39:59.978Z,2.00
2022-11-17T12:42:28.468Z,2.03
2022-11-17T12:45:00.655Z,2.10
2022-11-17T12:47:29.742Z,2.00
2022-11-17T12:50:28.553Z,2.77
2022-11-17T12:53:01.027Z,2.87
2022-11-17T12:55:32.609Z,2.43
2022-11-17T12:58:09.175Z,2.47
2022-11-17T13:00:39.505Z,2.83
2022-11-17T13:03:10.513Z,2.60
2022-11-17T13:05:38.930Z,2.80
2022-11-17T13:08:20.404Z,3.00
2022-11-17T13:10:48.853Z,2.87
2022-11-17T13:13:18.931Z,3.00
2022-11-17T13:15:48.478Z,3.00
2022-11-17T13:18:17.926Z,3.17
2022-11-17T13:20:47.731Z,3.50
2022-11-17T13:23:21.293Z,2.80
2022-11-17T13:25:50.037Z,2.57
2022-11-17T13:28:28.088Z,2.70
2022-11-17T13:30:56.633Z,2.70
2022-11-17T13:33:25.688Z,2.70
2022-11-17T13:36:09.602Z,2.97
2022-11-17T13:38:39.381Z,3.30
2022-11-17T13:41:07.829Z,2.97
2022-11-17T13:43:39.143Z,2.63
2022-11-17T13:46:07.883Z,2.63
2022-11-17T13:48:36.706Z,2.70
2022-11-17T13:51:18.387Z,2.77
2022-11-17T13:53:48.735Z,2.27
2022-11-17T13:56:27.076Z,2.33
2022-11-17T13:58:56.192Z,2.63
2022-11-17T14:01:25.358Z,2.30
2022-11-17T14:03:54.128Z,2.80
2022-11-17T14:06:22.616Z,2.80
2022-11-17T14:09:05.586Z,2.60
2022-11-17T14:11:34.000Z,2.20
2022-11-17T14:14:02.706Z,2.83
2022-11-17T14:16:31.649Z,2.07
2022-11-17T14:19:03.854Z,2.90
2022-11-17T14:21:32.638Z,2.03
2022-11-17T14:24:02.936Z,2.40
2022-11-17T14:26:32.767Z,2.37
2022-11-17T14:29:02.496Z,2.30
2022-11-17T14:31:31.618Z,2.50
2022-11-17T14:34:00.028Z,2.53
2022-11-17T14:36:28.600Z,2.33
2022-11-17T14:38:57.168Z,1.93
2022-11-17T14:41:25.701Z,2.73
2022-11-17T14:43:55.624Z,1.93
2022-11-17T14:46:24.547Z,1.53
2022-11-17T14:48:53.183Z,1.87
2022-11-17T14:51:21.678Z,2.43
2022-11-17T14:53:50.223Z,2.10
2022-11-17T14:56:19.243Z,1.80
2022-11-17T14:58:47.756Z,2.20
2022-11-17T15:01:18.785Z,2.30
2022-11-17T15:03:47.508Z,2.67
2022-11-17T15:06:19.873Z,2.13
2022-11-17T15:08:48.929Z,2.60
2022-11-17T15:11:18.199Z,2.40
2022-11-17T15:13:49.843Z,1.90
2022-11-17T15:16:19.884Z,2.20
2022-11-17T15:18:48.347Z,2.80
2022-11-17T15:21:17.246Z,1.90
2022-11-17T15:23:45.755Z,2.10
2022-11-17T15:26:14.938Z,2.13
2022-11-17T15:28:43.293Z,2.10
2022-11-17T15:31:15.001Z,1.97
2022-11-17T15:33:45.171Z,1.87
2022-11-17T15:36:14.058Z,2.37
2022-11-17T15:38:42.890Z,2.17
2022-11-17T15:41:12.003Z,2.43
2022-11-17T15:43:41.249Z,2.03
2022-11-17T15:46:10.280Z,2.13
2022-11-17T15:48:40.205Z,2.00
2022-11-17T15:51:11.338Z,2.00
2022-11-17T15:53:39.906Z,2.10
2022-11-17T15:56:09.030Z,2.20
2022-11-17T15:58:37.507Z,2.37
2022-11-17T16:01:08.895Z,2.20
2022-11-17T16:03:37.376Z,2.10
2022-11-17T16:06:05.869Z,2.20
2022-11-17T16:08:35.935Z,2.40
2022-11-17T16:11:04.416Z,2.17
2022-11-17T16:13:33.083Z,2.30
2022-11-17T16:16:01.475Z,2.37
2022-11-17T16:18:29.848Z,2.63
2022-11-17T16:21:04.913Z,2.17
2022-11-17T16:23:33.614Z,2.27
2022-11-17T16:26:03.490Z,2.57
2022-11-17T16:28:34.615Z,2.20
2022-11-17T16:31:03.016Z,2.10
2022-11-17T16:33:32.113Z,2.90
2022-11-17T16:36:05.554Z,2.30
2022-11-17T16:38:34.267Z,2.53
2022-11-17T16:41:04.291Z,2.27
2022-11-17T16:43:32.733Z,2.13
2022-11-17T16:46:01.046Z,2.00
2022-11-17T16:48:29.525Z,1.77
2022-11-17T17:03:22.979Z,2.60
2022-11-17T17:05:51.491Z,2.40
2022-11-17T17:08:19.836Z,2.30
2022-11-17T17:10:48.728Z,2.23
2022-11-17T17:13:17.099Z,2.00
2022-11-17T17:15:45.726Z,2.20
2022-11-17T17:18:14.450Z,2.67
2022-11-17T17:20:44.415Z,2.10
2022-11-17T17:23:12.730Z,2.50
2022-11-17T17:25:41.108Z,2.67
2022-11-17T17:28:09.790Z,2.10
2022-11-17T17:30:38.179Z,2.03
2022-11-17T17:33:06.588Z,2.33
2022-11-17T17:35:35.479Z,2.20
2022-11-17T17:38:05.526Z,2.43
2022-11-17T17:40:34.338Z,2.83
2022-11-17T17:43:03.216Z,2.33
2022-11-17T17:45:32.226Z,2.13
2022-11-17T17:48:00.603Z,2.23
2022-11-17T17:50:29.101Z,2.07
2022-11-17T17:52:57.555Z,2.00
2022-11-17T17:55:27.472Z,2.30
2022-11-17T17:57:55.902Z,2.30
2022-11-17T18:00:24.374Z,2.17
2022-11-17T18:02:53.467Z,2.20
2022-11-17T18:05:22.670Z,2.53
2022-11-17T18:07:51.060Z,2.70
2022-11-17T18:10:19.602Z,2.03
2022-11-17T18:12:49.619Z,2.53
2022-11-17T18:15:18.363Z,2.23
2022-11-17T18:17:46.969Z,2.27
2022-11-17T18:20:15.463Z,2.40
2022-11-17T18:22:44.266Z,2.30
2022-11-17T18:25:17.714Z,2.10
2022-11-17T18:27:46.473Z,2.30
2022-11-17T18:30:16.822Z,2.10
2022-11-17T18:32:45.221Z,2.23
2022-11-17T18:35:13.854Z,2.40
2022-11-17T18:37:42.629Z,2.17
2022-11-17T18:40:12.930Z,2.40
2022-11-17T18:42:41.360Z,2.50
2022-11-17T18:45:10.760Z,2.63
2022-11-17T18:47:40.428Z,2.30
2022-11-17T18:50:09.255Z,2.40
2022-11-17T18:52:37.833Z,2.53
2022-11-17T18:55:06.661Z,2.27
2022-11-17T18:57:35.108Z,2.90
2022-11-17T19:00:03.909Z,2.47
2022-11-17T19:02:32.356Z,2.30
2022-11-17T19:05:02.523Z,3.27
2022-11-17T19:07:30.940Z,3.13
2022-11-17T19:09:59.407Z,2.37
2022-11-17T19:12:28.152Z,2.70
2022-11-17T19:14:56.726Z,2.67
2022-11-17T19:17:25.221Z,3.47
2022-11-17T19:19:54.030Z,2.60
2022-11-17T19:22:24.124Z,2.27
2022-11-17T19:24:52.935Z,2.60
2022-11-17T19:27:22.388Z,2.53
2022-11-17T19:29:53.455Z,2.27
2022-11-17T19:32:24.093Z,2.87
2022-11-17T19:35:03.599Z,2.10
2022-11-17T19:37:56.505Z,2.97
2022-11-17T19:40:30.875Z,2.63
2022-11-17T19:42:59.322Z,2.37
2022-11-17T19:45:28.242Z,2.30
2022-11-17T19:47:56.915Z,2.70
2022-11-17T19:50:27.208Z,2.37
2022-11-17T19:53:00.947Z,2.40
2022-11-17T19:55:30.398Z,2.57
2022-11-17T19:57:58.854Z,2.43
2022-11-17T20:00:27.562Z,2.73
2022-11-17T20:02:56.142Z,2.57
2022-11-17T20:05:24.707Z,2.17
2022-11-17T20:07:53.210Z,2.30
2022-11-17T20:10:22.959Z,2.53
2022-11-17T20:12:51.361Z,1.90
2022-11-17T20:15:33.961Z,2.13
2022-11-17T20:18:03.295Z,2.80
2022-11-17T20:20:31.701Z,2.30
2022-11-17T20:22:59.992Z,2.30
2022-11-17T20:25:31.824Z,2.57
2022-11-17T20:28:00.206Z,3.10
2022-11-17T20:30:28.550Z,3.00
2022-11-17T20:32:56.878Z,2.80
2022-11-17T20:35:25.316Z,2.67
2022-11-17T20:37:53.704Z,2.10
2022-11-17T20:40:22.199Z,2.20
2022-11-17T20:42:52.121Z,1.97
2022-11-17T20:45:20.581Z,2.13
2022-11-17T20:47:49.541Z,2.07
2022-11-17T20:50:18.212Z,2.10
2022-11-17T20:52:46.659Z,2.00
2022-11-17T20:55:15.020Z,2.23
2022-11-17T20:57:43.797Z,1.90
2022-11-17T21:00:14.271Z,2.10
2022-11-17T21:02:42.950Z,1.80
2022-11-17T21:05:11.429Z,2.33
2022-11-17T21:07:39.954Z,2.33
2022-11-17T21:10:08.773Z,1.77
2022-11-17T21:12:37.529Z,2.00
2022-11-17T21:15:06.802Z,2.57
2022-11-17T21:17:54.185Z,2.30
2022-11-17T21:20:23.124Z,2.40
2022-11-17T21:22:55.407Z,2.57
2022-11-17T21:25:24.220Z,2.50
2022-11-17T21:27:52.837Z,2.20
2022-11-17T21:30:21.580Z,2.20
2022-11-17T21:32:51.569Z,2.20
2022-11-17T21:35:20.713Z,3.00
2022-11-17T21:37:49.121Z,2.53
2022-11-17T21:40:19.037Z,2.10
2022-11-17T21:42:47.789Z,2.57
2022-11-17T21:45:16.682Z,2.13
2022-11-17T21:47:45.212Z,2.40
2022-11-17T21:50:15.881Z,3.10
2022-11-17T21:52:44.268Z,2.90
2022-11-17T21:55:12.682Z,2.80
2022-11-17T21:57:41.300Z,2.50
2022-11-17T22:00:10.566Z,2.80
2022-11-17T22:02:41.822Z,2.63
2022-11-17T22:05:10.396Z,2.80
2022-11-17T22:07:40.531Z,2.57
2022-11-17T22:10:09.454Z,2.70
2022-11-17T22:12:37.925Z,2.53
2022-11-17T22:15:11.626Z,2.70
2022-11-17T22:17:40.240Z,2.90
2022-11-17T22:20:09.461Z,2.47
2022-11-17T22:22:46.436Z,2.40
2022-11-17T22:25:43.475Z,2.63
2022-11-17T22:28:06.105Z,2.70
2022-11-17T22:30:34.541Z,2.90
2022-11-17T22:33:02.999Z,3.10
2022-11-17T22:35:32.591Z,2.73
2022-11-17T22:38:01.074Z,2.80
2022-11-17T22:40:32.354Z,2.50
2022-11-17T22:43:04.305Z,2.50
2022-11-17T22:45:33.632Z,3.00
2022-11-17T22:48:05.249Z,2.90
2022-11-17T22:50:37.114Z,3.00
2022-11-17T22:53:06.568Z,2.87
2022-11-17T22:55:37.746Z,2.83
2022-11-17T22:58:07.420Z,2.83
2022-11-17T23:00:42.657Z,3.00
2022-11-17T23:03:11.908Z,2.87
2022-11-17T23:05:41.393Z,3.10
2022-11-17T23:08:10.263Z,3.17
2022-11-17T23:10:41.638Z,2.60
2022-11-17T23:13:10.032Z,2.77
2022-11-17T23:15:39.795Z,3.20
2022-11-17T23:18:08.631Z,3.13
2022-11-17T23:20:38.653Z,3.20
2022-11-17T23:23:07.051Z,2.90
2022-11-17T23:25:35.465Z,3.47
2022-11-17T23:28:05.431Z,3.90
2022-11-17T23:30:34.216Z,3.10
2022-11-17T23:33:02.568Z,3.30
2022-11-17T23:35:30.963Z,3.30
2022-11-17T23:37:59.844Z,3.33
2022-11-17T23:40:28.322Z,3.20
2022-11-17T23:42:56.651Z,3.30
2022-11-17T23:45:26.410Z,3.43
2022-11-17T23:47:55.282Z,3.00
2022-11-17T23:50:23.781Z,3.40
2022-11-17T23:52:52.177Z,3.03
2022-11-17T23:55:20.604Z,3.30
2022-11-17T23:57:49.147Z,2.97
